sensor_id;sensor_type;location;lat;lon;timestamp;P1;durP1;ratioP1;P2;durP2;ratioP2
26656;SDS011;14279;50.010;8.260;2023-08-31T00:01:28;4.93;;;3.23;;
26656;SDS011;14279;50.010;8.260;2023-08-31T00:03:53;7.13;;;3.80;;
26656;SDS011;14279;50.010;8.260;2023-08-31T00:06:19;5.67;;;3.10;;
26656;SDS011;14279;50.010;8.260;2023-08-31T00:08:46;6.37;;;3.57;;
26656;SDS011;14279;50.010;8.260;2023-08-31T00:11:12;3.83;;;2.97;;
26656;SDS011;14279;50.010;8.260;2023-08-31T00:13:37;4.40;;;2.93;;
26656;SDS011;14279;50.010;8.260;2023-08-31T00:16:03;5.20;;;3.80;;
26656;SDS011;14279;50.010;8.260;2023-08-31T00:18:29;7.33;;;3.63;;
26656;SDS011;14279;50.010;8.260;2023-08-31T00:20:55;7.80;;;3.40;;
26656;SDS011;14279;50.010;8.260;2023-08-31T00:23:20;6.77;;;3.10;;
26656;SDS011;14279;50.010;8.260;2023-08-31T00:25:46;6.20;;;3.23;;
26656;SDS011;14279;50.010;8.260;2023-08-31T00:28:13;7.47;;;3.27;;
26656;SDS011;14279;50.010;8.260;2023-08-31T00:30:40;3.77;;;2.63;;
26656;SDS011;14279;50.010;8.260;2023-08-31T00:33:06;4.87;;;3.00;;
26656;SDS011;14279;50.010;8.260;2023-08-31T00:35:33;6.57;;;3.30;;
26656;SDS011;14279;50.010;8.260;2023-08-31T00:37:58;5.17;;;3.23;;
26656;SDS011;14279;50.010;8.260;2023-08-31T00:40:24;8.60;;;3.13;;
26656;SDS011;14279;50.010;8.260;2023-08-31T00:42:49;6.60;;;3.23;;
26656;SDS011;14279;50.010;8.260;2023-08-31T00:45:15;5.17;;;2.97;;
26656;SDS011;14279;50.010;8.260;2023-08-31T00:47:40;7.87;;;3.80;;
26656;SDS011;14279;50.010;8.260;2023-08-31T00:50:06;3.87;;;3.03;;
26656;SDS011;14279;50.010;8.260;2023-08-31T00:52:33;8.87;;;3.93;;
26656;SDS011;14279;50.010;8.260;2023-08-31T00:54:59;4.70;;;3.03;;
26656;SDS011;14279;50.010;8.260;2023-08-31T00:57:26;4.90;;;3.63;;
26656;SDS011;14279;50.010;8.260;2023-08-31T00:59:52;8.77;;;4.40;;
26656;SDS011;14279;50.010;8.260;2023-08-31T01:05:08;4.60;;;3.50;;
26656;SDS011;14279;50.010;8.260;2023-08-31T01:13:19;6.03;;;3.70;;
26656;SDS011;14279;50.010;8.260;2023-08-31T01:15:51;11.87;;;4.00;;
26656;SDS011;14279;50.010;8.260;2023-08-31T01:18:20;4.37;;;3.70;;
26656;SDS011;14279;50.010;8.260;2023-08-31T01:24:04;7.50;;;3.83;;
26656;SDS011;14279;50.010;8.260;2023-08-31T01:26:23;5.20;;;3.97;;
26656;SDS011;14279;50.010;8.260;2023-08-31T01:28:49;6.27;;;4.10;;
26656;SDS011;14279;50.010;8.260;2023-08-31T01:31:16;6.67;;;3.67;;
26656;SDS011;14279;50.010;8.260;2023-08-31T01:33:41;10.80;;;4.63;;
26656;SDS011;14279;50.010;8.260;2023-08-31T01:36:17;7.50;;;3.77;;
26656;SDS011;14279;50.010;8.260;2023-08-31T01:38:50;8.33;;;3.67;;
26656;SDS011;14279;50.010;8.260;2023-08-31T01:41:23;7.67;;;3.70;;
26656;SDS011;14279;50.010;8.260;2023-08-31T01:43:51;7.20;;;3.90;;
26656;SDS011;14279;50.010;8.260;2023-08-31T01:46:18;11.20;;;4.37;;
26656;SDS011;14279;50.010;8.260;2023-08-31T01:48:44;10.40;;;4.00;;
26656;SDS011;14279;50.010;8.260;2023-08-31T01:51:09;8.70;;;3.97;;
26656;SDS011;14279;50.010;8.260;2023-08-31T01:53:35;7.03;;;4.00;;
26656;SDS011;14279;50.010;8.260;2023-08-31T01:56:00;5.43;;;4.10;;
26656;SDS011;14279;50.010;8.260;2023-08-31T01:58:26;7.77;;;3.90;;
26656;SDS011;14279;50.010;8.260;2023-08-31T02:00:51;9.47;;;4.20;;
26656;SDS011;14279;50.010;8.260;2023-08-31T02:03:16;8.37;;;3.83;;
26656;SDS011;14279;50.010;8.260;2023-08-31T02:05:41;5.87;;;3.30;;
26656;SDS011;14279;50.010;8.260;2023-08-31T02:08:07;8.57;;;3.87;;
26656;SDS011;14279;50.010;8.260;2023-08-31T02:10:32;6.10;;;4.20;;
26656;SDS011;14279;50.010;8.260;2023-08-31T02:12:57;6.80;;;3.93;;
26656;SDS011;14279;50.010;8.260;2023-08-31T02:15:22;5.13;;;3.60;;
26656;SDS011;14279;50.010;8.260;2023-08-31T02:17:48;13.83;;;4.43;;
26656;SDS011;14279;50.010;8.260;2023-08-31T02:20:13;8.67;;;4.10;;
26656;SDS011;14279;50.010;8.260;2023-08-31T02:22:39;5.20;;;3.63;;
26656;SDS011;14279;50.010;8.260;2023-08-31T02:25:04;5.30;;;3.90;;
26656;SDS011;14279;50.010;8.260;2023-08-31T02:27:30;4.67;;;3.60;;
26656;SDS011;14279;50.010;8.260;2023-08-31T02:29:55;8.00;;;3.83;;
26656;SDS011;14279;50.010;8.260;2023-08-31T02:32:21;8.33;;;3.80;;
26656;SDS011;14279;50.010;8.260;2023-08-31T02:34:46;5.97;;;4.13;;
26656;SDS011;14279;50.010;8.260;2023-08-31T02:37:11;6.00;;;4.30;;
26656;SDS011;14279;50.010;8.260;2023-08-31T02:39:36;6.73;;;4.40;;
26656;SDS011;14279;50.010;8.260;2023-08-31T02:42:02;4.70;;;4.07;;
26656;SDS011;14279;50.010;8.260;2023-08-31T02:44:27;7.50;;;4.40;;
26656;SDS011;14279;50.010;8.260;2023-08-31T02:46:52;13.93;;;4.60;;
26656;SDS011;14279;50.010;8.260;2023-08-31T02:49:17;7.97;;;3.97;;
26656;SDS011;14279;50.010;8.260;2023-08-31T02:51:43;11.87;;;5.17;;
26656;SDS011;14279;50.010;8.260;2023-08-31T02:54:08;8.60;;;4.67;;
26656;SDS011;14279;50.010;8.260;2023-08-31T02:56:33;4.70;;;3.73;;
26656;SDS011;14279;50.010;8.260;2023-08-31T02:58:58;7.40;;;4.80;;
26656;SDS011;14279;50.010;8.260;2023-08-31T03:01:24;5.47;;;3.77;;
26656;SDS011;14279;50.010;8.260;2023-08-31T03:03:49;8.03;;;5.00;;
26656;SDS011;14279;50.010;8.260;2023-08-31T03:06:14;6.77;;;4.07;;
26656;SDS011;14279;50.010;8.260;2023-08-31T03:08:40;6.67;;;4.73;;
26656;SDS011;14279;50.010;8.260;2023-08-31T03:11:05;9.80;;;4.80;;
26656;SDS011;14279;50.010;8.260;2023-08-31T03:13:31;10.83;;;4.00;;
26656;SDS011;14279;50.010;8.260;2023-08-31T03:15:57;5.53;;;4.30;;
26656;SDS011;14279;50.010;8.260;2023-08-31T03:18:22;5.73;;;4.30;;
26656;SDS011;14279;50.010;8.260;2023-08-31T03:20:48;5.80;;;4.07;;
26656;SDS011;14279;50.010;8.260;2023-08-31T03:23:14;6.03;;;4.63;;
26656;SDS011;14279;50.010;8.260;2023-08-31T03:25:39;8.43;;;4.30;;
26656;SDS011;14279;50.010;8.260;2023-08-31T03:28:05;7.47;;;4.27;;
26656;SDS011;14279;50.010;8.260;2023-08-31T03:30:31;11.47;;;4.60;;
26656;SDS011;14279;50.010;8.260;2023-08-31T03:32:56;5.93;;;4.10;;
26656;SDS011;14279;50.010;8.260;2023-08-31T03:35:21;9.03;;;4.40;;
26656;SDS011;14279;50.010;8.260;2023-08-31T03:37:51;5.53;;;4.17;;
26656;SDS011;14279;50.010;8.260;2023-08-31T03:40:17;9.13;;;4.70;;
26656;SDS011;14279;50.010;8.260;2023-08-31T03:42:42;5.30;;;4.30;;
26656;SDS011;14279;50.010;8.260;2023-08-31T03:45:08;5.37;;;3.97;;
26656;SDS011;14279;50.010;8.260;2023-08-31T03:47:33;9.80;;;4.40;;
26656;SDS011;14279;50.010;8.260;2023-08-31T03:49:58;5.53;;;4.23;;
26656;SDS011;14279;50.010;8.260;2023-08-31T03:52:23;5.90;;;4.10;;
26656;SDS011;14279;50.010;8.260;2023-08-31T03:54:49;5.90;;;4.00;;
26656;SDS011;14279;50.010;8.260;2023-08-31T03:57:16;7.47;;;3.90;;
26656;SDS011;14279;50.010;8.260;2023-08-31T03:59:41;5.30;;;4.07;;
26656;SDS011;14279;50.010;8.260;2023-08-31T04:02:06;10.40;;;4.50;;
26656;SDS011;14279;50.010;8.260;2023-08-31T04:04:31;12.57;;;4.63;;
26656;SDS011;14279;50.010;8.260;2023-08-31T04:06:58;8.20;;;4.17;;
26656;SDS011;14279;50.010;8.260;2023-08-31T04:09:23;7.23;;;4.33;;
26656;SDS011;14279;50.010;8.260;2023-08-31T04:11:48;6.83;;;4.60;;
26656;SDS011;14279;50.010;8.260;2023-08-31T04:14:14;4.70;;;4.10;;
26656;SDS011;14279;50.010;8.260;2023-08-31T04:16:39;5.17;;;4.43;;
26656;SDS011;14279;50.010;8.260;2023-08-31T04:19:04;7.70;;;4.50;;
26656;SDS011;14279;50.010;8.260;2023-08-31T04:21:29;9.13;;;4.80;;
26656;SDS011;14279;50.010;8.260;2023-08-31T04:23:55;4.60;;;4.13;;
26656;SDS011;14279;50.010;8.260;2023-08-31T04:26:20;8.33;;;4.50;;
26656;SDS011;14279;50.010;8.260;2023-08-31T04:28:46;6.93;;;4.80;;
26656;SDS011;14279;50.010;8.260;2023-08-31T04:31:11;12.03;;;4.63;;
26656;SDS011;14279;50.010;8.260;2023-08-31T04:33:36;8.93;;;4.90;;
26656;SDS011;14279;50.010;8.260;2023-08-31T04:36:03;9.50;;;4.77;;
26656;SDS011;14279;50.010;8.260;2023-08-31T04:38:31;8.77;;;4.50;;
26656;SDS011;14279;50.010;8.260;2023-08-31T04:41:00;9.00;;;4.20;;
26656;SDS011;14279;50.010;8.260;2023-08-31T04:43:26;8.43;;;5.20;;
26656;SDS011;14279;50.010;8.260;2023-08-31T04:45:52;7.13;;;3.90;;
26656;SDS011;14279;50.010;8.260;2023-08-31T04:48:18;10.67;;;4.63;;
26656;SDS011;14279;50.010;8.260;2023-08-31T04:50:43;5.40;;;4.57;;
26656;SDS011;14279;50.010;8.260;2023-08-31T04:53:08;4.53;;;3.73;;
26656;SDS011;14279;50.010;8.260;2023-08-31T04:55:33;8.50;;;4.60;;
26656;SDS011;14279;50.010;8.260;2023-08-31T04:57:59;5.20;;;4.30;;
26656;SDS011;14279;50.010;8.260;2023-08-31T05:00:24;7.20;;;4.10;;
26656;SDS011;14279;50.010;8.260;2023-08-31T05:02:49;5.10;;;4.00;;
26656;SDS011;14279;50.010;8.260;2023-08-31T05:05:15;8.70;;;4.20;;
26656;SDS011;14279;50.010;8.260;2023-08-31T05:07:40;10.83;;;5.00;;
26656;SDS011;14279;50.010;8.260;2023-08-31T05:10:05;6.97;;;4.80;;
26656;SDS011;14279;50.010;8.260;2023-08-31T05:12:33;4.93;;;4.10;;
26656;SDS011;14279;50.010;8.260;2023-08-31T05:15:04;5.67;;;4.23;;
26656;SDS011;14279;50.010;8.260;2023-08-31T05:17:29;6.03;;;4.00;;
26656;SDS011;14279;50.010;8.260;2023-08-31T05:19:55;6.70;;;4.07;;
26656;SDS011;14279;50.010;8.260;2023-08-31T05:22:21;5.40;;;3.57;;
26656;SDS011;14279;50.010;8.260;2023-08-31T05:24:47;7.40;;;3.87;;
26656;SDS011;14279;50.010;8.260;2023-08-31T05:27:12;7.63;;;3.50;;
26656;SDS011;14279;50.010;8.260;2023-08-31T05:29:37;9.13;;;3.97;;
26656;SDS011;14279;50.010;8.260;2023-08-31T05:32:03;6.70;;;3.90;;
26656;SDS011;14279;50.010;8.260;2023-08-31T05:34:28;12.47;;;3.90;;
26656;SDS011;14279;50.010;8.260;2023-08-31T05:36:54;7.13;;;3.70;;
26656;SDS011;14279;50.010;8.260;2023-08-31T05:39:19;8.67;;;4.00;;
26656;SDS011;14279;50.010;8.260;2023-08-31T05:41:44;5.20;;;3.70;;
26656;SDS011;14279;50.010;8.260;2023-08-31T05:44:10;6.10;;;3.93;;
26656;SDS011;14279;50.010;8.260;2023-08-31T05:46:35;8.50;;;4.10;;
26656;SDS011;14279;50.010;8.260;2023-08-31T05:49:01;10.53;;;4.20;;
26656;SDS011;14279;50.010;8.260;2023-08-31T05:51:26;7.53;;;3.87;;
26656;SDS011;14279;50.010;8.260;2023-08-31T05:53:52;10.60;;;3.77;;
26656;SDS011;14279;50.010;8.260;2023-08-31T05:56:18;4.40;;;3.03;;
26656;SDS011;14279;50.010;8.260;2023-08-31T05:58:44;6.17;;;3.30;;
26656;SDS011;14279;50.010;8.260;2023-08-31T06:01:09;4.03;;;3.03;;
26656;SDS011;14279;50.010;8.260;2023-08-31T06:03:35;7.27;;;3.10;;
26656;SDS011;14279;50.010;8.260;2023-08-31T06:06:00;10.00;;;3.90;;
26656;SDS011;14279;50.010;8.260;2023-08-31T06:08:25;6.83;;;3.23;;
26656;SDS011;14279;50.010;8.260;2023-08-31T06:10:54;6.13;;;3.10;;
26656;SDS011;14279;50.010;8.260;2023-08-31T06:13:28;16.23;;;4.33;;
26656;SDS011;14279;50.010;8.260;2023-08-31T06:15:54;7.40;;;3.07;;
26656;SDS011;14279;50.010;8.260;2023-08-31T06:18:24;5.87;;;3.70;;
26656;SDS011;14279;50.010;8.260;2023-08-31T06:20:57;9.23;;;3.10;;
26656;SDS011;14279;50.010;8.260;2023-08-31T06:23:22;4.63;;;2.47;;
26656;SDS011;14279;50.010;8.260;2023-08-31T06:25:48;7.57;;;2.90;;
26656;SDS011;14279;50.010;8.260;2023-08-31T06:28:13;8.73;;;3.20;;
26656;SDS011;14279;50.010;8.260;2023-08-31T06:30:38;13.33;;;2.80;;
26656;SDS011;14279;50.010;8.260;2023-08-31T06:33:04;8.60;;;3.20;;
26656;SDS011;14279;50.010;8.260;2023-08-31T06:35:29;3.97;;;2.77;;
26656;SDS011;14279;50.010;8.260;2023-08-31T06:37:56;12.50;;;3.10;;
26656;SDS011;14279;50.010;8.260;2023-08-31T06:40:21;10.67;;;3.80;;
26656;SDS011;14279;50.010;8.260;2023-08-31T06:42:46;3.70;;;2.57;;
26656;SDS011;14279;50.010;8.260;2023-08-31T06:45:11;6.93;;;2.97;;
26656;SDS011;14279;50.010;8.260;2023-08-31T06:47:37;3.73;;;2.33;;
26656;SDS011;14279;50.010;8.260;2023-08-31T06:50:02;11.50;;;3.73;;
26656;SDS011;14279;50.010;8.260;2023-08-31T06:52:28;7.00;;;3.30;;
26656;SDS011;14279;50.010;8.260;2023-08-31T06:54:54;5.53;;;2.97;;
26656;SDS011;14279;50.010;8.260;2023-08-31T06:57:23;5.70;;;2.70;;
26656;SDS011;14279;50.010;8.260;2023-08-31T06:59:48;5.97;;;3.10;;
26656;SDS011;14279;50.010;8.260;2023-08-31T07:02:14;8.90;;;3.20;;
26656;SDS011;14279;50.010;8.260;2023-08-31T07:04:39;5.87;;;2.70;;
26656;SDS011;14279;50.010;8.260;2023-08-31T07:07:05;9.73;;;2.50;;
26656;SDS011;14279;50.010;8.260;2023-08-31T07:09:31;3.93;;;2.87;;
26656;SDS011;14279;50.010;8.260;2023-08-31T07:11:56;6.43;;;2.93;;
26656;SDS011;14279;50.010;8.260;2023-08-31T07:14:23;9.73;;;3.50;;
26656;SDS011;14279;50.010;8.260;2023-08-31T07:16:48;3.70;;;2.63;;
26656;SDS011;14279;50.010;8.260;2023-08-31T07:19:13;8.93;;;2.70;;
26656;SDS011;14279;50.010;8.260;2023-08-31T07:21:38;9.37;;;3.20;;
26656;SDS011;14279;50.010;8.260;2023-08-31T07:24:04;9.50;;;2.90;;
26656;SDS011;14279;50.010;8.260;2023-08-31T07:26:29;9.30;;;2.60;;
26656;SDS011;14279;50.010;8.260;2023-08-31T07:28:54;5.43;;;2.53;;
26656;SDS011;14279;50.010;8.260;2023-08-31T07:31:20;4.43;;;2.80;;
26656;SDS011;14279;50.010;8.260;2023-08-31T07:33:45;6.40;;;2.90;;
26656;SDS011;14279;50.010;8.260;2023-08-31T07:36:10;13.70;;;2.77;;
26656;SDS011;14279;50.010;8.260;2023-08-31T07:38:36;6.97;;;2.73;;
26656;SDS011;14279;50.010;8.260;2023-08-31T07:41:01;6.17;;;3.33;;
26656;SDS011;14279;50.010;8.260;2023-08-31T07:43:26;7.40;;;2.53;;
26656;SDS011;14279;50.010;8.260;2023-08-31T07:45:52;10.97;;;2.80;;
26656;SDS011;14279;50.010;8.260;2023-08-31T07:48:18;5.93;;;2.70;;
26656;SDS011;14279;50.010;8.260;2023-08-31T07:50:43;6.07;;;2.37;;
26656;SDS011;14279;50.010;8.260;2023-08-31T07:53:08;5.70;;;2.30;;
26656;SDS011;14279;50.010;8.260;2023-08-31T07:55:34;5.47;;;2.50;;
26656;SDS011;14279;50.010;8.260;2023-08-31T07:58:00;6.20;;;2.70;;
26656;SDS011;14279;50.010;8.260;2023-08-31T08:00:26;6.50;;;2.27;;
26656;SDS011;14279;50.010;8.260;2023-08-31T08:02:51;5.33;;;2.73;;
26656;SDS011;14279;50.010;8.260;2023-08-31T08:05:16;6.60;;;2.43;;
26656;SDS011;14279;50.010;8.260;2023-08-31T08:07:41;7.60;;;2.83;;
26656;SDS011;14279;50.010;8.260;2023-08-31T08:10:07;6.13;;;2.40;;
26656;SDS011;14279;50.010;8.260;2023-08-31T08:12:37;9.33;;;2.17;;
26656;SDS011;14279;50.010;8.260;2023-08-31T08:15:08;5.03;;;2.50;;
26656;SDS011;14279;50.010;8.260;2023-08-31T08:17:34;6.90;;;2.20;;
26656;SDS011;14279;50.010;8.260;2023-08-31T08:19:59;13.00;;;2.60;;
26656;SDS011;14279;50.010;8.260;2023-08-31T08:22:24;10.50;;;3.33;;
26656;SDS011;14279;50.010;8.260;2023-08-31T08:24:50;8.20;;;2.60;;
26656;SDS011;14279;50.010;8.260;2023-08-31T08:27:15;11.60;;;2.70;;
26656;SDS011;14279;50.010;8.260;2023-08-31T08:29:42;8.60;;;2.80;;
26656;SDS011;14279;50.010;8.260;2023-08-31T08:32:08;13.90;;;2.37;;
26656;SDS011;14279;50.010;8.260;2023-08-31T08:34:33;7.17;;;2.70;;
26656;SDS011;14279;50.010;8.260;2023-08-31T08:36:59;8.43;;;2.00;;
26656;SDS011;14279;50.010;8.260;2023-08-31T08:39:24;5.97;;;3.00;;
26656;SDS011;14279;50.010;8.260;2023-08-31T08:41:49;7.17;;;2.20;;
26656;SDS011;14279;50.010;8.260;2023-08-31T08:44:16;9.73;;;3.00;;
26656;SDS011;14279;50.010;8.260;2023-08-31T08:46:41;5.60;;;2.40;;
26656;SDS011;14279;50.010;8.260;2023-08-31T08:49:08;7.30;;;3.10;;
26656;SDS011;14279;50.010;8.260;2023-08-31T08:51:35;6.40;;;2.70;;
26656;SDS011;14279;50.010;8.260;2023-08-31T08:54:00;16.60;;;3.50;;
26656;SDS011;14279;50.010;8.260;2023-08-31T08:56:26;8.50;;;2.70;;
26656;SDS011;14279;50.010;8.260;2023-08-31T08:58:52;6.00;;;2.50;;
26656;SDS011;14279;50.010;8.260;2023-08-31T09:01:17;5.47;;;2.60;;
26656;SDS011;14279;50.010;8.260;2023-08-31T09:03:47;7.30;;;2.30;;
26656;SDS011;14279;50.010;8.260;2023-08-31T09:06:12;7.53;;;2.33;;
26656;SDS011;14279;50.010;8.260;2023-08-31T09:08:38;6.60;;;2.60;;
26656;SDS011;14279;50.010;8.260;2023-08-31T09:11:06;9.37;;;2.73;;
26656;SDS011;14279;50.010;8.260;2023-08-31T09:13:32;9.50;;;2.90;;
26656;SDS011;14279;50.010;8.260;2023-08-31T09:15:58;4.53;;;2.70;;
26656;SDS011;14279;50.010;8.260;2023-08-31T09:20:50;6.10;;;2.50;;
26656;SDS011;14279;50.010;8.260;2023-08-31T09:23:17;9.67;;;2.10;;
26656;SDS011;14279;50.010;8.260;2023-08-31T09:25:46;7.13;;;2.33;;
26656;SDS011;14279;50.010;8.260;2023-08-31T09:28:18;11.30;;;2.87;;
26656;SDS011;14279;50.010;8.260;2023-08-31T09:30:46;4.00;;;2.40;;
26656;SDS011;14279;50.010;8.260;2023-08-31T09:33:14;4.00;;;1.90;;
26656;SDS011;14279;50.010;8.260;2023-08-31T09:35:51;4.43;;;2.27;;
26656;SDS011;14279;50.010;8.260;2023-08-31T09:38:21;9.17;;;3.00;;
26656;SDS011;14279;50.010;8.260;2023-08-31T09:40:47;6.17;;;2.50;;
26656;SDS011;14279;50.010;8.260;2023-08-31T09:43:18;4.27;;;1.90;;
26656;SDS011;14279;50.010;8.260;2023-08-31T09:45:45;12.10;;;2.20;;
26656;SDS011;14279;50.010;8.260;2023-08-31T09:48:11;6.40;;;2.33;;
26656;SDS011;14279;50.010;8.260;2023-08-31T09:50:36;10.67;;;2.30;;
26656;SDS011;14279;50.010;8.260;2023-08-31T09:53:03;6.93;;;2.37;;
26656;SDS011;14279;50.010;8.260;2023-08-31T09:55:30;8.27;;;2.17;;
26656;SDS011;14279;50.010;8.260;2023-08-31T09:57:57;6.37;;;2.40;;
26656;SDS011;14279;50.010;8.260;2023-08-31T10:00:25;5.13;;;2.63;;
26656;SDS011;14279;50.010;8.260;2023-08-31T10:02:51;7.93;;;2.13;;
26656;SDS011;14279;50.010;8.260;2023-08-31T10:05:18;6.43;;;2.40;;
26656;SDS011;14279;50.010;8.260;2023-08-31T10:07:45;7.17;;;2.20;;
26656;SDS011;14279;50.010;8.260;2023-08-31T10:10:10;4.80;;;2.00;;
26656;SDS011;14279;50.010;8.260;2023-08-31T10:12:37;4.83;;;2.17;;
26656;SDS011;14279;50.010;8.260;2023-08-31T10:15:04;5.73;;;1.97;;
26656;SDS011;14279;50.010;8.260;2023-08-31T10:17:30;4.53;;;2.10;;
26656;SDS011;14279;50.010;8.260;2023-08-31T10:19:58;4.80;;;1.77;;
26656;SDS011;14279;50.010;8.260;2023-08-31T10:22:24;1.73;;;1.53;;
26656;SDS011;14279;50.010;8.260;2023-08-31T10:27:22;7.40;;;2.47;;
26656;SDS011;14279;50.010;8.260;2023-08-31T10:29:48;4.60;;;1.40;;
26656;SDS011;14279;50.010;8.260;2023-08-31T10:32:17;6.10;;;2.50;;
26656;SDS011;14279;50.010;8.260;2023-08-31T10:35:03;6.40;;;2.00;;
26656;SDS011;14279;50.010;8.260;2023-08-31T10:37:30;7.20;;;2.37;;
26656;SDS011;14279;50.010;8.260;2023-08-31T10:40:08;8.83;;;2.50;;
26656;SDS011;14279;50.010;8.260;2023-08-31T10:42:46;11.00;;;2.20;;
26656;SDS011;14279;50.010;8.260;2023-08-31T10:45:12;10.40;;;2.87;;
26656;SDS011;14279;50.010;8.260;2023-08-31T10:47:46;6.20;;;1.90;;
26656;SDS011;14279;50.010;8.260;2023-08-31T10:50:33;8.73;;;2.40;;
26656;SDS011;14279;50.010;8.260;2023-08-31T10:53:09;5.93;;;2.10;;
26656;SDS011;14279;50.010;8.260;2023-08-31T10:55:43;3.33;;;1.80;;
26656;SDS011;14279;50.010;8.260;2023-08-31T10:58:18;3.57;;;1.67;;
26656;SDS011;14279;50.010;8.260;2023-08-31T11:00:47;3.87;;;1.53;;
26656;SDS011;14279;50.010;8.260;2023-08-31T11:03:18;2.87;;;1.63;;
26656;SDS011;14279;50.010;8.260;2023-08-31T11:05:52;2.70;;;1.80;;
26656;SDS011;14279;50.010;8.260;2023-08-31T11:08:25;6.73;;;1.73;;
26656;SDS011;14279;50.010;8.260;2023-08-31T11:10:51;3.77;;;1.83;;
26656;SDS011;14279;50.010;8.260;2023-08-31T11:13:20;4.63;;;1.73;;
26656;SDS011;14279;50.010;8.260;2023-08-31T11:15:45;3.03;;;1.83;;
26656;SDS011;14279;50.010;8.260;2023-08-31T11:18:11;3.80;;;2.10;;
26656;SDS011;14279;50.010;8.260;2023-08-31T11:20:37;4.07;;;1.93;;
26656;SDS011;14279;50.010;8.260;2023-08-31T11:23:02;2.60;;;1.43;;
26656;SDS011;14279;50.010;8.260;2023-08-31T11:25:30;3.87;;;1.77;;
26656;SDS011;14279;50.010;8.260;2023-08-31T11:27:56;3.57;;;1.57;;
26656;SDS011;14279;50.010;8.260;2023-08-31T11:30:24;5.70;;;1.70;;
26656;SDS011;14279;50.010;8.260;2023-08-31T11:32:56;6.80;;;1.90;;
26656;SDS011;14279;50.010;8.260;2023-08-31T11:35:21;3.53;;;1.60;;
26656;SDS011;14279;50.010;8.260;2023-08-31T11:37:56;4.43;;;1.80;;
26656;SDS011;14279;50.010;8.260;2023-08-31T11:40:22;5.77;;;1.90;;
26656;SDS011;14279;50.010;8.260;2023-08-31T11:42:48;3.10;;;1.77;;
26656;SDS011;14279;50.010;8.260;2023-08-31T11:45:14;3.97;;;1.97;;
26656;SDS011;14279;50.010;8.260;2023-08-31T11:47:40;3.73;;;1.87;;
26656;SDS011;14279;50.010;8.260;2023-08-31T11:50:08;3.83;;;1.73;;
26656;SDS011;14279;50.010;8.260;2023-08-31T11:52:34;2.07;;;1.70;;
26656;SDS011;14279;50.010;8.260;2023-08-31T11:54:59;4.43;;;2.03;;
26656;SDS011;14279;50.010;8.260;2023-08-31T11:57:25;3.33;;;1.90;;
26656;SDS011;14279;50.010;8.260;2023-08-31T11:59:51;2.80;;;1.83;;
26656;SDS011;14279;50.010;8.260;2023-08-31T12:02:20;2.00;;;1.60;;
26656;SDS011;14279;50.010;8.260;2023-08-31T12:04:45;8.53;;;2.13;;
26656;SDS011;14279;50.010;8.260;2023-08-31T12:07:11;3.23;;;2.03;;
26656;SDS011;14279;50.010;8.260;2023-08-31T12:09:41;2.80;;;1.77;;
26656;SDS011;14279;50.010;8.260;2023-08-31T12:12:09;3.43;;;1.57;;
26656;SDS011;14279;50.010;8.260;2023-08-31T12:14:36;3.13;;;1.57;;
26656;SDS011;14279;50.010;8.260;2023-08-31T12:17:05;4.53;;;1.90;;
26656;SDS011;14279;50.010;8.260;2023-08-31T12:19:31;3.17;;;1.77;;
26656;SDS011;14279;50.010;8.260;2023-08-31T12:21:57;2.60;;;2.03;;
26656;SDS011;14279;50.010;8.260;2023-08-31T12:24:23;2.37;;;1.43;;
26656;SDS011;14279;50.010;8.260;2023-08-31T12:26:49;5.10;;;1.80;;
26656;SDS011;14279;50.010;8.260;2023-08-31T12:29:15;5.50;;;2.47;;
26656;SDS011;14279;50.010;8.260;2023-08-31T12:31:41;6.73;;;2.07;;
26656;SDS011;14279;50.010;8.260;2023-08-31T12:34:06;3.87;;;1.80;;
26656;SDS011;14279;50.010;8.260;2023-08-31T12:36:32;6.60;;;2.10;;
26656;SDS011;14279;50.010;8.260;2023-08-31T12:38:58;3.00;;;1.90;;
26656;SDS011;14279;50.010;8.260;2023-08-31T12:41:26;2.77;;;2.07;;
26656;SDS011;14279;50.010;8.260;2023-08-31T12:43:52;2.80;;;1.90;;
26656;SDS011;14279;50.010;8.260;2023-08-31T12:46:17;4.00;;;1.90;;
26656;SDS011;14279;50.010;8.260;2023-08-31T12:48:42;3.83;;;1.80;;
26656;SDS011;14279;50.010;8.260;2023-08-31T12:51:07;5.40;;;2.00;;
26656;SDS011;14279;50.010;8.260;2023-08-31T12:53:36;7.63;;;2.90;;
26656;SDS011;14279;50.010;8.260;2023-08-31T12:56:02;5.50;;;2.40;;
26656;SDS011;14279;50.010;8.260;2023-08-31T12:58:28;4.80;;;2.50;;
26656;SDS011;14279;50.010;8.260;2023-08-31T13:00:54;4.53;;;2.13;;
26656;SDS011;14279;50.010;8.260;2023-08-31T13:03:19;4.00;;;2.17;;
26656;SDS011;14279;50.010;8.260;2023-08-31T13:05:44;5.73;;;2.83;;
26656;SDS011;14279;50.010;8.260;2023-08-31T13:08:10;2.77;;;1.93;;
26656;SDS011;14279;50.010;8.260;2023-08-31T13:10:35;7.73;;;3.60;;
26656;SDS011;14279;50.010;8.260;2023-08-31T13:13:03;4.33;;;1.83;;
26656;SDS011;14279;50.010;8.260;2023-08-31T13:15:28;4.77;;;1.57;;
26656;SDS011;14279;50.010;8.260;2023-08-31T13:17:56;4.57;;;2.30;;
26656;SDS011;14279;50.010;8.260;2023-08-31T13:20:22;4.27;;;1.80;;
26656;SDS011;14279;50.010;8.260;2023-08-31T13:22:47;5.83;;;2.20;;
26656;SDS011;14279;50.010;8.260;2023-08-31T13:25:12;5.40;;;2.10;;
26656;SDS011;14279;50.010;8.260;2023-08-31T13:27:38;4.70;;;1.97;;
26656;SDS011;14279;50.010;8.260;2023-08-31T13:30:03;6.27;;;2.13;;
26656;SDS011;14279;50.010;8.260;2023-08-31T13:32:34;4.37;;;2.20;;
26656;SDS011;14279;50.010;8.260;2023-08-31T13:35:00;6.10;;;2.07;;
26656;SDS011;14279;50.010;8.260;2023-08-31T13:37:26;14.13;;;2.90;;
26656;SDS011;14279;50.010;8.260;2023-08-31T13:39:51;5.00;;;2.03;;
26656;SDS011;14279;50.010;8.260;2023-08-31T13:42:17;5.17;;;2.20;;
26656;SDS011;14279;50.010;8.260;2023-08-31T13:44:42;3.47;;;1.70;;
26656;SDS011;14279;50.010;8.260;2023-08-31T13:47:07;5.17;;;2.30;;
26656;SDS011;14279;50.010;8.260;2023-08-31T13:49:33;4.17;;;2.27;;
26656;SDS011;14279;50.010;8.260;2023-08-31T13:58:48;6.13;;;1.83;;
26656;SDS011;14279;50.010;8.260;2023-08-31T14:01:13;5.40;;;1.90;;
26656;SDS011;14279;50.010;8.260;2023-08-31T14:03:39;5.43;;;2.33;;
26656;SDS011;14279;50.010;8.260;2023-08-31T14:06:04;8.53;;;2.37;;
26656;SDS011;14279;50.010;8.260;2023-08-31T14:08:29;5.80;;;2.50;;
26656;SDS011;14279;50.010;8.260;2023-08-31T14:10:55;7.00;;;2.63;;
26656;SDS011;14279;50.010;8.260;2023-08-31T14:13:21;12.30;;;2.43;;
26656;SDS011;14279;50.010;8.260;2023-08-31T14:15:47;7.70;;;2.07;;
26656;SDS011;14279;50.010;8.260;2023-08-31T14:18:16;8.10;;;2.67;;
26656;SDS011;14279;50.010;8.260;2023-08-31T14:20:46;4.10;;;2.30;;
26656;SDS011;14279;50.010;8.260;2023-08-31T14:23:43;6.93;;;2.27;;
26656;SDS011;14279;50.010;8.260;2023-08-31T14:26:32;5.83;;;2.13;;
26656;SDS011;14279;50.010;8.260;2023-08-31T14:29:09;6.60;;;2.40;;
26656;SDS011;14279;50.010;8.260;2023-08-31T14:31:44;8.40;;;2.67;;
26656;SDS011;14279;50.010;8.260;2023-08-31T14:34:34;4.40;;;1.73;;
26656;SDS011;14279;50.010;8.260;2023-08-31T14:37:01;5.60;;;2.60;;
26656;SDS011;14279;50.010;8.260;2023-08-31T14:39:27;11.90;;;2.50;;
26656;SDS011;14279;50.010;8.260;2023-08-31T14:41:56;9.40;;;2.50;;
26656;SDS011;14279;50.010;8.260;2023-08-31T14:44:36;5.90;;;2.20;;
26656;SDS011;14279;50.010;8.260;2023-08-31T14:47:01;6.17;;;2.30;;
26656;SDS011;14279;50.010;8.260;2023-08-31T14:49:26;8.63;;;2.07;;
26656;SDS011;14279;50.010;8.260;2023-08-31T14:51:51;4.00;;;2.03;;
26656;SDS011;14279;50.010;8.260;2023-08-31T14:54:17;6.60;;;2.37;;
26656;SDS011;14279;50.010;8.260;2023-08-31T14:56:42;6.23;;;2.20;;
26656;SDS011;14279;50.010;8.260;2023-08-31T14:59:07;6.87;;;2.10;;
26656;SDS011;14279;50.010;8.260;2023-08-31T15:01:33;8.20;;;2.63;;
26656;SDS011;14279;50.010;8.260;2023-08-31T15:03:58;7.33;;;2.77;;
26656;SDS011;14279;50.010;8.260;2023-08-31T15:06:23;6.17;;;2.57;;